Time;durP1;ratioP1;P1;durP2;ratioP2;P2;SDS_P1;SDS_P2;PMS_P1;PMS_P2;Temp;Humidity;BMP_temperature;BMP_pressure;BME280_temperature;BME280_humidity;BME280_pressure;Samples;Min_cycle;Max_cycle;Signal;HPM_P1;HPM_P2
2021/08/25 00:06:08;;;;;;;1.48;0.77;;;23.10;99.90;;;;;;20714190;23;20226;-74
2021/08/25 00:16:12;;;;;;;1.48;0.70;;;23.10;99.90;;;;;;20665547;28;20285;-72
2021/08/25 00:26:17;;;;;;;0.90;0.50;;;23.10;99.90;;;;;;20639451;28;20215;-75
2021/08/25 00:36:20;;;;;;;0.60;0.57;;;23.20;99.90;;;;;;20665774;28;20437;-73
2021/08/25 00:46:26;;;;;;;2.97;1.17;;;22.80;99.90;;;;;;20666594;28;20199;-74
2021/08/25 00:56:30;;;;;;;0.70;0.60;;;22.70;99.90;;;;;;20678231;28;20217;-72
2021/08/25 01:06:37;;;;;;;0.43;0.43;;;22.50;99.90;;;;;;20619856;23;1646084;-77
2021/08/25 01:16:42;;;;;;;4.00;0.93;;;22.30;99.90;;;;;;20619898;28;20203;-76
2021/08/25 01:26:52;;;;;;;0.73;0.73;;;22.50;99.90;;;;;;20620961;28;20472;-76
2021/08/25 01:36:57;;;;;;;3.73;0.77;;;22.40;99.90;;;;;;20633811;28;20204;-78
2021/08/25 01:47:01;;;;;;;0.50;0.40;;;22.70;99.90;;;;;;20668183;28;20231;-77
2021/08/25 01:57:06;;;;;;;0.80;0.70;;;22.90;99.90;;;;;;20618239;28;20286;-76
2021/08/25 02:07:10;;;;;;;3.13;1.00;;;23.10;99.90;;;;;;20736203;23;20905;-72
2021/08/25 02:17:15;;;;;;;1.70;0.60;;;23.10;99.90;;;;;;20736037;28;20570;-73
2021/08/25 02:27:18;;;;;;;2.17;1.00;;;23.10;99.90;;;;;;20733781;28;20229;-71
2021/08/25 02:37:23;;;;;;;0.57;0.43;;;23.10;99.90;;;;;;20748367;28;20199;-73
2021/08/25 02:47:27;;;;;;;0.70;0.57;;;23.00;99.90;;;;;;20672408;28;20353;-73
2021/08/25 02:57:33;;;;;;;0.60;0.40;;;23.00;99.90;;;;;;20773665;28;20191;-73
2021/08/25 03:07:36;;;;;;;0.63;0.40;;;23.00;99.90;;;;;;20670563;23;20240;-78
2021/08/25 03:17:41;;;;;;;4.77;1.00;;;22.90;99.90;;;;;;20654313;28;20203;-80
2021/08/25 03:27:45;;;;;;;0.80;0.50;;;22.80;99.90;;;;;;20679662;28;20274;-78
2021/08/25 03:37:50;;;;;;;1.17;0.93;;;22.90;99.90;;;;;;20676467;28;20258;-79
2021/08/25 03:47:54;;;;;;;1.50;0.77;;;22.90;99.90;;;;;;20656529;28;20227;-79
2021/08/25 03:57:59;;;;;;;0.87;0.60;;;22.90;99.90;;;;;;20620325;28;21087;-78
2021/08/25 04:08:03;;;;;;;1.70;0.60;;;22.90;99.90;;;;;;20816228;23;20236;-74
2021/08/25 04:18:08;;;;;;;1.13;0.67;;;22.90;99.90;;;;;;20805363;28;20654;-73
2021/08/25 04:28:12;;;;;;;2.93;1.73;;;22.90;99.90;;;;;;20862635;28;20686;-72
2021/08/25 04:38:17;;;;;;;2.27;1.07;;;22.90;99.90;;;;;;20832825;28;20204;-74
2021/08/25 04:48:20;;;;;;;1.43;0.60;;;22.90;99.90;;;;;;20761355;28;20241;-73
2021/08/25 04:58:25;;;;;;;2.95;1.23;;;22.90;99.90;;;;;;20771256;28;20241;-72
2021/08/25 05:08:29;;;;;;;6.40;1.53;;;22.90;99.90;;;;;;20706180;28;20234;-72
2021/08/25 05:18:34;;;;;;;0.23;0.23;;;22.80;99.90;;;;;;20698345;28;20207;-74
2021/08/25 05:28:37;;;;;;;0.73;0.63;;;22.80;99.90;;;;;;20693906;28;20218;-72
2021/08/25 05:38:43;;;;;;;0.70;0.67;;;22.70;99.90;;;;;;20695639;28;20203;-73
2021/08/25 05:48:47;;;;;;;0.97;0.97;;;22.80;99.90;;;;;;20694607;28;20237;-74
2021/08/25 05:58:52;;;;;;;0.67;0.67;;;22.80;99.90;;;;;;20709691;28;20194;-71
2021/08/25 06:08:56;;;;;;;2.60;1.37;;;22.80;99.90;;;;;;20776285;28;20241;-72
2021/08/25 06:19:01;;;;;;;1.90;1.20;;;22.90;99.90;;;;;;20775849;28;20204;-72
2021/08/25 06:29:05;;;;;;;1.05;0.55;;;23.10;99.90;;;;;;20775446;28;20595;-72
2021/08/25 06:39:10;;;;;;;3.08;0.98;;;23.30;99.90;;;;;;20774874;28;20674;-74
2021/08/25 06:49:13;;;;;;;0.60;0.60;;;23.80;99.90;;;;;;20802711;28;20225;-73
2021/08/25 06:59:18;;;;;;;3.15;1.33;;;24.40;99.90;;;;;;20763122;28;20186;-72
2021/08/25 07:09:22;;;;;;;2.72;0.82;;;24.70;99.90;;;;;;20769555;28;20525;-72
2021/08/25 07:19:27;;;;;;;0.47;0.43;;;25.20;99.90;;;;;;20752614;28;20190;-75
2021/08/25 07:29:31;;;;;;;2.55;1.63;;;25.70;99.90;;;;;;20744706;28;20690;-77
2021/08/25 07:39:36;;;;;;;0.30;0.17;;;25.70;99.90;;;;;;20771353;28;20339;-73
2021/08/25 07:49:40;;;;;;;0.43;0.40;;;25.80;99.90;;;;;;20763349;28;20238;-75
2021/08/25 07:59:45;;;;;;;2.58;0.57;;;25.60;99.90;;;;;;20762445;28;20700;-74
2021/08/25 08:09:49;;;;;;;1.42;0.50;;;25.70;99.90;;;;;;20765480;28;20710;-73
2021/08/25 08:19:56;;;;;;;1.90;0.57;;;26.10;99.90;;;;;;20782569;28;20202;-74
2021/08/25 08:30:01;;;;;;;1.10;0.73;;;26.30;99.90;;;;;;20782031;28;20229;-72
2021/08/25 08:40:08;;;;;;;0.52;0.52;;;26.30;99.90;;;;;;20779882;28;20232;-74
2021/08/25 08:50:12;;;;;;;5.20;0.90;;;26.20;99.90;;;;;;20779996;28;20228;-77
2021/08/25 09:00:19;;;;;;;0.68;0.68;;;26.40;99.90;;;;;;20736483;28;20409;-74
2021/08/25 09:10:25;;;;;;;3.37;1.13;;;26.30;99.90;;;;;;20710657;28;20448;-71
2021/08/25 09:20:32;;;;;;;1.63;1.33;;;25.90;99.90;;;;;;20734583;28;20486;-75
2021/08/25 09:30:57;;;;;;;0.85;0.63;;;26.10;99.90;;;;;;20775102;28;20297;-73
2021/08/25 09:41:08;;;;;;;1.27;0.55;;;26.60;99.90;;;;;;20777337;28;20288;-73
2021/08/25 09:51:14;;;;;;;0.45;0.45;;;26.90;99.90;;;;;;20754684;28;20221;-75
2021/08/25 10:01:21;;;;;;;2.60;1.20;;;26.80;99.90;;;;;;20739472;28;20349;-72
2021/08/25 10:11:30;;;;;;;0.57;0.50;;;27.30;99.90;;;;;;20692365;28;20238;-70
2021/08/25 10:21:45;;;;;;;0.70;0.68;;;27.30;99.90;;;;;;20686979;28;20201;-73
2021/08/25 10:32:17;;;;;;;1.70;1.60;;;27.10;99.90;;;;;;20709921;28;20229;-72
2021/08/25 10:42:43;;;;;;;8.68;1.20;;;27.50;99.90;;;;;;20707555;28;20549;-73
2021/08/25 10:52:47;;;;;;;1.25;0.90;;;27.50;99.90;;;;;;20732488;28;20749;-74
2021/08/25 11:02:54;;;;;;;2.45;1.52;;;27.90;99.90;;;;;;20751431;28;20227;-73
2021/08/25 11:12:58;;;;;;;1.30;1.15;;;27.00;99.90;;;;;;20754048;28;20230;-72
2021/08/25 11:23:04;;;;;;;5.07;1.20;;;27.80;99.90;;;;;;20744990;28;20253;-72
2021/08/25 11:33:10;;;;;;;2.47;1.15;;;28.40;99.90;;;;;;20747656;28;20342;-72
2021/08/25 11:43:20;;;;;;;1.45;1.00;;;29.10;99.90;;;;;;20756945;28;20191;-71
2021/08/25 11:53:26;;;;;;;4.97;1.85;;;28.50;99.90;;;;;;20703323;28;20305;-71
2021/08/25 12:03:41;;;;;;;11.20;1.38;;;28.90;99.90;;;;;;20738105;28;20234;-71
2021/08/25 12:13:47;;;;;;;1.00;0.90;;;29.80;99.90;;;;;;20786606;28;20234;-69
2021/08/25 12:23:58;;;;;;;2.25;1.45;;;30.30;99.90;;;;;;20723202;28;20240;-72
2021/08/25 12:34:10;;;;;;;10.02;1.95;;;30.50;99.90;;;;;;20703848;28;20589;-73
2021/08/25 12:44:18;;;;;;;3.17;1.17;;;30.10;99.90;;;;;;20699611;28;20905;-72
2021/08/25 12:54:25;;;;;;;4.57;1.52;;;30.30;99.90;;;;;;20697099;28;20226;-72
2021/08/25 13:04:30;;;;;;;2.42;1.48;;;30.80;99.90;;;;;;20755441;28;20229;-72
2021/08/25 13:14:34;;;;;;;1.25;1.13;;;30.70;99.90;;;;;;20762258;28;20230;-71
2021/08/25 13:24:39;;;;;;;6.72;1.70;;;30.80;99.90;;;;;;20680074;28;20195;-73
2021/08/25 13:34:43;;;;;;;3.05;1.90;;;30.40;99.90;;;;;;20706111;28;20635;-73
2021/08/25 13:44:50;;;;;;;1.92;1.15;;;29.50;99.90;;;;;;20696049;28;20218;-73
2021/08/25 13:54:53;;;;;;;5.72;2.88;;;31.60;99.90;;;;;;20696413;28;20227;-72
2021/08/25 14:04:58;;;;;;;2.28;1.00;;;31.10;99.90;;;;;;20756489;28;20218;-72
2021/08/25 14:15:02;;;;;;;1.27;1.13;;;31.90;99.90;;;;;;20772440;28;20264;-73
2021/08/25 14:25:09;;;;;;;3.15;1.48;;;32.80;99.90;;;;;;20757354;28;20356;-71
2021/08/25 14:35:13;;;;;;;1.42;1.10;;;34.10;99.90;;;;;;20773238;28;20549;-68
2021/08/25 14:45:18;;;;;;;6.90;0.80;;;33.20;99.90;;;;;;20773810;28;20214;-73
2021/08/25 14:55:26;;;;;;;1.45;1.20;;;33.30;99.90;;;;;;20773704;28;20214;-72
2021/08/25 15:05:31;;;;;;;2.05;1.23;;;32.90;99.90;;;;;;20699507;28;20226;-67
2021/08/25 15:15:34;;;;;;;3.15;1.50;;;33.90;99.90;;;;;;20738327;28;20222;-72
2021/08/25 15:25:40;;;;;;;1.67;1.42;;;33.60;99.90;;;;;;20777933;28;20494;-72
2021/08/25 15:35:44;;;;;;;2.72;1.60;;;33.40;99.90;;;;;;20744533;28;20238;-71
2021/08/25 15:45:50;;;;;;;1.70;1.58;;;32.00;99.90;;;;;;20709563;28;20195;-70
2021/08/25 15:55:54;;;;;;;3.35;1.38;;;30.50;99.90;;;;;;20726597;28;20233;-72
2021/08/25 16:05:59;;;;;;;1.67;1.13;;;29.80;99.90;;;;;;20782578;28;20404;-71
2021/08/25 16:16:03;;;;;;;3.00;1.88;;;28.60;99.90;;;;;;20731743;28;20241;-72
2021/08/25 16:26:09;;;;;;;2.08;1.20;;;28.00;99.90;;;;;;20725034;28;20489;-70
2021/08/25 16:36:13;;;;;;;3.95;1.77;;;28.10;99.90;;;;;;20747977;28;20282;-72
2021/08/25 16:46:18;;;;;;;3.92;1.02;;;27.90;99.90;;;;;;20709518;28;20663;-69
2021/08/25 16:56:22;;;;;;;1.30;0.88;;;27.70;99.90;;;;;;20679999;28;20349;-70
2021/08/25 17:06:27;;;;;;;2.35;1.70;;;27.70;99.90;;;;;;20746136;28;20232;-72
2021/08/25 17:16:31;;;;;;;2.55;1.55;;;27.50;99.90;;;;;;20758937;28;20616;-70
2021/08/25 17:26:37;;;;;;;1.25;0.90;;;27.10;99.90;;;;;;20777868;28;20240;-70
2021/08/25 17:36:40;;;;;;;1.15;0.88;;;26.40;99.90;;;;;;20777062;28;20467;-69
2021/08/25 17:46:46;;;;;;;2.10;1.23;;;26.10;99.90;;;;;;20774748;28;20643;-70
2021/08/25 17:56:50;;;;;;;1.63;1.45;;;25.90;99.90;;;;;;20772631;28;20570;-66
2021/08/25 18:06:55;;;;;;;1.77;0.98;;;25.80;99.90;;;;;;20693897;28;20706;-70
2021/08/25 18:16:59;;;;;;;1.45;1.35;;;25.60;99.90;;;;;;20676066;28;20557;-69
2021/08/25 18:27:05;;;;;;;1.20;0.88;;;25.50;99.90;;;;;;20671552;28;20206;-71
2021/08/25 18:37:08;;;;;;;1.70;1.55;;;25.90;99.90;;;;;;20697126;28;20226;-70
2021/08/25 18:47:14;;;;;;;2.20;1.17;;;26.10;99.90;;;;;;20687748;28;20226;-70
2021/08/25 18:57:17;;;;;;;1.20;1.10;;;25.90;99.90;;;;;;20708433;28;20238;-70
2021/08/25 19:07:23;;;;;;;2.35;1.55;;;25.60;99.90;;;;;;20704420;28;20276;-70
2021/08/25 19:17:26;;;;;;;1.05;0.55;;;25.30;99.90;;;;;;20705831;28;20226;-69
2021/08/25 19:27:32;;;;;;;0.95;0.57;;;25.10;99.90;;;;;;20702556;28;20549;-71
2021/08/25 19:37:36;;;;;;;1.45;0.63;;;24.70;99.90;;;;;;20703053;28;20226;-71
2021/08/25 19:47:41;;;;;;;2.53;0.95;;;24.80;99.90;;;;;;20702521;28;20195;-69
2021/08/25 19:57:46;;;;;;;0.70;0.70;;;24.10;99.90;;;;;;20702076;28;20680;-68
2021/08/25 20:07:51;;;;;;;3.00;0.97;;;22.60;99.90;;;;;;20703118;28;20944;-69
2021/08/25 20:17:55;;;;;;;0.77;0.50;;;22.30;99.90;;;;;;20699139;28;20218;-69
2021/08/25 20:28:01;;;;;;;0.50;0.50;;;22.40;99.90;;;;;;20699982;28;20199;-68
2021/08/25 20:38:04;;;;;;;2.10;1.07;;;22.60;99.90;;;;;;20698479;28;20715;-69
2021/08/25 20:48:09;;;;;;;0.73;0.40;;;22.70;99.90;;;;;;20700690;28;20203;-70
2021/08/25 20:58:13;;;;;;;2.23;0.70;;;22.40;99.90;;;;;;20698031;28;20226;-68
2021/08/25 21:08:18;;;;;;;0.43;0.30;;;22.70;99.90;;;;;;20769689;28;20214;-69
2021/08/25 21:18:22;;;;;;;0.50;0.50;;;22.90;99.90;;;;;;20750519;28;20226;-70
2021/08/25 21:28:27;;;;;;;0.60;0.60;;;22.90;99.90;;;;;;20761102;28;20715;-71
2021/08/25 21:38:32;;;;;;;0.60;0.50;;;22.80;99.90;;;;;;22330298;22;20230;-70
2021/08/25 21:48:38;;;;;;;0.80;0.77;;;22.60;99.90;;;;;;20756669;28;20204;-71
2021/08/25 21:58:42;;;;;;;0.50;0.50;;;22.50;99.90;;;;;;20796592;28;20601;-70
2021/08/25 22:08:48;;;;;;;0.63;0.60;;;22.50;99.90;;;;;;20775767;28;20199;-70
2021/08/25 22:18:51;;;;;;;3.27;1.00;;;22.40;99.90;;;;;;20772552;28;20348;-70
2021/08/25 22:28:56;;;;;;;8.33;0.60;;;22.30;99.90;;;;;;20774055;28;20559;-69
2021/08/25 22:39:00;;;;;;;0.83;0.63;;;22.20;99.90;;;;;;20772644;28;20246;-70
2021/08/25 22:49:05;;;;;;;1.53;1.20;;;22.20;99.90;;;;;;20750651;28;20191;-71
2021/08/25 22:59:09;;;;;;;2.23;1.20;;;22.10;99.90;;;;;;20741822;28;20716;-71
2021/08/25 23:09:14;;;;;;;4.07;1.20;;;22.00;99.90;;;;;;20753828;28;20280;-70
2021/08/25 23:19:18;;;;;;;1.03;0.90;;;21.90;99.90;;;;;;20753873;28;20894;-69
2021/08/25 23:29:23;;;;;;;1.33;1.00;;;21.90;99.90;;;;;;20745848;28;20520;-69
2021/08/25 23:39:26;;;;;;;0.63;0.63;;;21.90;99.90;;;;;;20773842;28;20729;-69
2021/08/25 23:49:31;;;;;;;1.93;0.93;;;21.80;99.90;;;;;;20704926;28;20221;-69
2021/08/25 23:59:37;;;;;;;0.50;0.50;;;21.60;99.90;;;;;;20744096;28;20303;-70
